createdAt,value
2018-09-14T00:00:40.674Z,10.40
2018-09-14T00:03:09.685Z,9.87
2018-09-14T00:05:38.950Z,10.10
2018-09-14T00:08:07.900Z,10.30
2018-09-14T00:10:37.140Z,9.80
2018-09-14T00:13:06.125Z,10.57
2018-09-14T00:15:35.299Z,10.37
2018-09-14T00:18:04.428Z,10.40
2018-09-14T00:20:33.451Z,10.43
2018-09-14T00:23:02.392Z,9.97
2018-09-14T00:25:31.460Z,10.33
2018-09-14T00:28:00.961Z,10.90
2018-09-14T00:30:29.923Z,10.87
2018-09-14T00:32:59.141Z,10.57
2018-09-14T00:35:28.521Z,9.83
2018-09-14T00:37:57.937Z,10.73
2018-09-14T00:40:26.879Z,10.63
2018-09-14T00:42:56.012Z,10.53
2018-09-14T00:45:25.264Z,10.50
2018-09-14T00:47:54.244Z,10.83
2018-09-14T00:50:23.350Z,11.33
2018-09-14T00:52:52.341Z,11.40
2018-09-14T00:55:21.530Z,11.67
2018-09-14T00:57:51.160Z,10.77
2018-09-14T01:00:20.215Z,12.10
2018-09-14T01:02:49.343Z,12.07
2018-09-14T01:05:18.414Z,13.67
2018-09-14T01:07:47.380Z,14.57
2018-09-14T01:10:16.375Z,15.03
2018-09-14T01:12:45.391Z,14.60
2018-09-14T01:15:14.290Z,14.30
2018-09-14T01:17:43.360Z,15.17
2018-09-14T01:20:12.446Z,15.70
2018-09-14T01:22:41.735Z,14.83
2018-09-14T01:25:10.904Z,14.93
2018-09-14T01:27:40.030Z,13.90
2018-09-14T01:30:09.382Z,13.53
2018-09-14T01:32:38.794Z,14.27
2018-09-14T01:35:13.013Z,13.20
2018-09-14T01:37:42.300Z,12.63
2018-09-14T01:40:11.636Z,11.67
2018-09-14T01:42:40.536Z,11.30
2018-09-14T01:45:09.885Z,12.23
2018-09-14T01:47:39.070Z,11.87
2018-09-14T01:50:08.369Z,11.00
2018-09-14T01:52:37.452Z,11.33
2018-09-14T01:55:07.032Z,11.47
2018-09-14T01:57:36.321Z,11.00
2018-09-14T02:00:06.114Z,11.27
2018-09-14T02:02:35.337Z,11.57
2018-09-14T02:05:04.300Z,11.67
2018-09-14T02:07:33.324Z,11.40
2018-09-14T02:10:02.260Z,10.87
2018-09-14T02:12:31.298Z,11.93
2018-09-14T02:15:00.235Z,12.40
2018-09-14T02:17:29.352Z,13.80
2018-09-14T02:19:58.433Z,12.97
2018-09-14T02:22:27.563Z,13.67
2018-09-14T02:24:56.523Z,13.60
2018-09-14T02:27:25.541Z,13.77
2018-09-14T02:29:54.504Z,12.90
2018-09-14T02:32:23.493Z,13.80
2018-09-14T02:34:52.588Z,12.83
2018-09-14T02:37:21.781Z,12.63
2018-09-14T02:39:50.912Z,12.53
2018-09-14T02:42:19.970Z,11.93
2018-09-14T02:44:49.140Z,12.63
2018-09-14T02:47:18.124Z,12.43
2018-09-14T02:49:47.162Z,12.87
2018-09-14T02:52:16.345Z,12.17
2018-09-14T02:54:45.772Z,12.80
2018-09-14T02:57:15.090Z,13.77
2018-09-14T02:59:44.348Z,14.17
2018-09-14T03:02:13.740Z,13.43
2018-09-14T03:04:42.738Z,15.30
2018-09-14T03:07:11.921Z,13.17
2018-09-14T03:09:41.228Z,14.07
2018-09-14T03:12:10.387Z,14.43
2018-09-14T03:14:39.603Z,13.50
2018-09-14T03:17:08.736Z,14.20
2018-09-14T03:19:37.772Z,14.83
2018-09-14T03:22:06.983Z,14.47
2018-09-14T03:24:36.179Z,15.27
2018-09-14T03:27:05.663Z,15.17
2018-09-14T03:29:34.720Z,14.93
2018-09-14T03:32:04.037Z,15.73
2018-09-14T03:34:33.343Z,16.00
2018-09-14T03:37:02.681Z,14.70
2018-09-14T03:39:32.016Z,15.53
2018-09-14T03:42:01.444Z,16.27
2018-09-14T03:44:30.713Z,17.03
2018-09-14T03:46:59.855Z,17.23
2018-09-14T03:49:29.156Z,17.57
2018-09-14T03:51:58.465Z,16.77
2018-09-14T03:54:27.484Z,15.80
2018-09-14T03:56:56.589Z,15.67
2018-09-14T03:59:25.546Z,15.60
2018-09-14T04:01:54.676Z,15.93
2018-09-14T04:04:24.216Z,16.10
2018-09-14T04:06:53.667Z,16.10
2018-09-14T04:09:22.858Z,15.33
2018-09-14T04:11:52.145Z,15.67
2018-09-14T04:14:21.387Z,16.00
2018-09-14T04:16:50.775Z,18.50
2018-09-14T04:19:20.154Z,16.97
2018-09-14T04:21:49.428Z,12.73
2018-09-14T04:24:18.802Z,13.23
2018-09-14T04:26:47.868Z,13.90
2018-09-14T04:29:17.193Z,13.93
2018-09-14T04:31:46.431Z,13.67
2018-09-14T04:34:15.452Z,12.87
2018-09-14T04:36:44.724Z,13.03
2018-09-14T04:39:13.661Z,12.83
2018-09-14T04:41:42.564Z,13.27
2018-09-14T04:44:11.774Z,14.23
2018-09-14T04:46:40.720Z,16.30
2018-09-14T04:49:09.906Z,15.13
2018-09-14T04:51:38.903Z,12.50
2018-09-14T04:54:07.945Z,12.87
2018-09-14T04:56:36.998Z,13.83
2018-09-14T04:59:06.095Z,13.43
2018-09-14T05:01:35.134Z,12.67
2018-09-14T05:04:04.281Z,14.70
2018-09-14T05:06:33.275Z,14.47
2018-09-14T05:09:02.288Z,16.20
2018-09-14T05:11:31.296Z,17.40
2018-09-14T05:14:00.397Z,12.30
2018-09-14T05:16:29.376Z,11.60
2018-09-14T05:18:58.415Z,12.20
2018-09-14T05:21:27.551Z,11.40
2018-09-14T05:23:56.753Z,11.63
2018-09-14T05:26:26.012Z,11.53
2018-09-14T05:28:55.348Z,11.67
2018-09-14T05:31:24.509Z,11.97
2018-09-14T05:33:53.576Z,10.13
2018-09-14T05:36:22.571Z,9.43
2018-09-14T05:38:51.491Z,8.30
2018-09-14T05:41:20.814Z,6.93
2018-09-14T05:43:50.065Z,7.70
2018-09-14T05:46:19.077Z,7.83
2018-09-14T05:48:48.004Z,6.63
2018-09-14T05:51:17.523Z,5.90
2018-09-14T05:53:46.500Z,7.73
2018-09-14T05:56:15.568Z,7.23
2018-09-14T05:58:44.863Z,7.17
2018-09-14T06:01:14.058Z,8.20
2018-09-14T06:03:43.196Z,7.60
2018-09-14T06:06:12.188Z,6.30
2018-09-14T06:08:41.079Z,6.67
2018-09-14T06:11:10.199Z,7.60
2018-09-14T06:13:39.127Z,6.90
2018-09-14T06:16:08.511Z,5.57
2018-09-14T06:18:37.881Z,6.80
2018-09-14T06:21:06.892Z,6.37
2018-09-14T06:23:35.831Z,6.13
2018-09-14T06:26:04.817Z,6.47
2018-09-14T06:28:33.856Z,6.03
2018-09-14T06:31:02.836Z,6.50
2018-09-14T06:33:32.109Z,6.73
2018-09-14T06:36:01.031Z,6.77
2018-09-14T06:38:30.164Z,6.20
2018-09-14T06:40:59.566Z,5.57
2018-09-14T06:43:28.491Z,6.03
2018-09-14T06:45:57.404Z,6.00
2018-09-14T06:48:26.303Z,5.87
2018-09-14T06:50:55.276Z,5.60
2018-09-14T06:53:24.311Z,6.03
2018-09-14T06:55:53.337Z,5.23
2018-09-14T06:58:22.336Z,4.23
2018-09-14T07:00:51.212Z,4.10
2018-09-14T07:03:20.987Z,8.37
2018-09-14T07:05:49.859Z,7.73
2018-09-14T07:08:19.836Z,5.43
2018-09-14T07:10:48.931Z,4.70
2018-09-14T07:13:18.511Z,4.60
2018-09-14T07:15:47.861Z,6.27
2018-09-14T07:18:17.644Z,6.17
2018-09-14T07:20:47.184Z,5.03
2018-09-14T07:23:16.375Z,4.20
2018-09-14T07:25:45.840Z,4.53
2018-09-14T07:28:14.769Z,4.43
2018-09-14T07:30:43.858Z,4.00
2018-09-14T07:33:12.941Z,4.57
2018-09-14T07:35:41.761Z,4.90
2018-09-14T07:38:10.826Z,4.03
2018-09-14T07:40:39.815Z,4.10
2018-09-14T07:43:08.864Z,3.70
2018-09-14T07:45:37.883Z,3.67
2018-09-14T07:48:06.930Z,3.93
2018-09-14T07:50:36.316Z,4.10
2018-09-14T07:53:05.616Z,3.30
2018-09-14T07:55:34.570Z,4.50
2018-09-14T07:58:03.508Z,3.30
2018-09-14T08:00:32.784Z,3.73
2018-09-14T08:03:01.675Z,3.10
2018-09-14T08:05:30.724Z,3.23
2018-09-14T08:07:59.892Z,3.20
2018-09-14T08:10:28.765Z,3.60
2018-09-14T08:12:57.945Z,2.93
2018-09-14T08:15:26.988Z,3.10
2018-09-14T08:17:56.032Z,3.23
2018-09-14T08:20:25.125Z,4.07
2018-09-14T08:22:54.043Z,3.20
2018-09-14T08:25:23.093Z,3.03
2018-09-14T08:27:52.312Z,3.20
2018-09-14T08:30:21.472Z,3.37
2018-09-14T08:32:50.344Z,3.43
2018-09-14T08:35:19.433Z,3.20
2018-09-14T08:37:48.675Z,3.50
2018-09-14T08:40:17.888Z,3.90
2018-09-14T08:42:46.880Z,3.30
2018-09-14T08:45:15.848Z,3.10
2018-09-14T08:47:44.799Z,3.73
2018-09-14T08:50:13.819Z,4.00
2018-09-14T08:52:42.708Z,3.83
2018-09-14T08:55:11.811Z,3.60
2018-09-14T08:57:41.316Z,3.70
2018-09-14T09:00:10.844Z,3.53
2018-09-14T09:02:40.244Z,3.33
2018-09-14T09:05:09.492Z,3.77
2018-09-14T09:07:38.499Z,3.53
2018-09-14T09:10:07.490Z,4.37
2018-09-14T09:12:36.775Z,3.43
2018-09-14T09:15:05.955Z,3.40
2018-09-14T09:17:35.134Z,3.83
2018-09-14T09:20:04.281Z,3.90
2018-09-14T09:22:33.471Z,4.20
2018-09-14T09:25:02.702Z,4.03
2018-09-14T09:27:31.636Z,3.70
2018-09-14T09:30:00.623Z,3.87
2018-09-14T09:32:29.548Z,3.90
2018-09-14T09:34:58.860Z,3.60
2018-09-14T09:37:27.746Z,3.80
2018-09-14T09:39:57.172Z,4.00
2018-09-14T09:42:26.053Z,4.10
2018-09-14T09:44:55.060Z,3.90
2018-09-14T09:47:24.077Z,4.10
2018-09-14T09:49:53.299Z,3.73
2018-09-14T09:52:22.316Z,3.70
2018-09-14T09:54:51.864Z,3.90
2018-09-14T09:57:21.282Z,3.90
2018-09-14T09:59:50.351Z,3.50
2018-09-14T10:02:24.724Z,4.17
2018-09-14T10:04:59.128Z,3.83
2018-09-14T10:07:28.738Z,4.10
2018-09-14T10:09:57.885Z,3.97
2018-09-14T10:12:26.942Z,3.90
2018-09-14T10:14:55.980Z,3.90
2018-09-14T10:17:25.096Z,4.40
2018-09-14T10:19:54.159Z,4.00
2018-09-14T10:22:23.320Z,4.47
2018-09-14T10:24:52.389Z,3.77
2018-09-14T10:27:21.283Z,3.77
2018-09-14T10:29:50.315Z,4.03
2018-09-14T10:32:19.485Z,4.23
2018-09-14T10:34:48.488Z,3.77
2018-09-14T10:37:17.469Z,3.63
2018-09-14T10:39:46.568Z,4.10
2018-09-14T10:42:15.523Z,4.20
2018-09-14T10:44:44.485Z,4.43
2018-09-14T10:47:13.700Z,4.07
2018-09-14T10:49:43.464Z,4.80
2018-09-14T10:52:12.854Z,3.63
2018-09-14T10:54:41.811Z,3.90
2018-09-14T10:57:10.667Z,3.83
2018-09-14T10:59:39.596Z,3.87
2018-09-14T11:02:08.616Z,3.93
2018-09-14T11:04:37.436Z,4.00
2018-09-14T11:07:06.541Z,3.57
2018-09-14T11:09:35.606Z,4.30
2018-09-14T11:12:04.805Z,3.87
2018-09-14T11:14:33.967Z,4.03
2018-09-14T11:17:03.164Z,4.33
2018-09-14T11:19:32.212Z,3.97
2018-09-14T11:22:01.268Z,4.33
2018-09-14T11:24:30.280Z,3.60
2018-09-14T11:26:59.477Z,3.90
2018-09-14T11:29:28.378Z,4.30
2018-09-14T11:31:57.550Z,3.70
2018-09-14T11:34:27.121Z,4.17
2018-09-14T11:36:55.999Z,4.13
2018-09-14T11:39:24.954Z,4.00
2018-09-14T11:41:53.984Z,3.90
2018-09-14T11:44:23.293Z,4.47
2018-09-14T11:46:52.401Z,3.90
2018-09-14T11:49:21.479Z,3.80
2018-09-14T11:51:50.541Z,3.80
2018-09-14T11:54:19.477Z,4.27
2018-09-14T11:56:48.672Z,4.27
2018-09-14T11:59:17.899Z,4.00
2018-09-14T12:01:46.922Z,4.07
2018-09-14T12:04:15.993Z,3.93
2018-09-14T12:06:44.988Z,3.47
2018-09-14T12:09:13.864Z,3.70
2018-09-14T12:11:42.954Z,3.73
2018-09-14T12:14:12.355Z,3.53
2018-09-14T12:16:41.409Z,3.80
2018-09-14T12:19:10.496Z,3.60
2018-09-14T12:21:39.379Z,3.80
2018-09-14T12:24:08.380Z,4.03
2018-09-14T12:26:37.492Z,4.03
2018-09-14T12:29:06.876Z,4.40
2018-09-14T12:31:35.781Z,3.73
2018-09-14T12:34:05.116Z,3.70
2018-09-14T12:36:34.185Z,4.07
2018-09-14T12:39:03.351Z,4.10
2018-09-14T12:41:32.537Z,4.10
2018-09-14T12:44:01.391Z,4.57
2018-09-14T12:46:30.345Z,3.40
2018-09-14T12:48:59.664Z,3.90
2018-09-14T12:51:29.900Z,3.53
2018-09-14T12:53:58.735Z,4.13
2018-09-14T12:56:27.924Z,3.77
2018-09-14T12:58:56.824Z,4.30
2018-09-14T13:01:26.524Z,4.30
2018-09-14T13:03:55.472Z,3.90
2018-09-14T13:06:25.107Z,3.50
2018-09-14T13:08:54.059Z,3.33
2018-09-14T13:11:22.971Z,3.73
2018-09-14T13:13:52.301Z,3.67
2018-09-14T13:16:21.255Z,4.33
2018-09-14T13:18:50.428Z,3.90
2018-09-14T13:21:19.721Z,4.13
2018-09-14T13:23:48.736Z,3.47
2018-09-14T13:26:17.704Z,4.03
2018-09-14T13:28:47.029Z,3.80
2018-09-14T13:31:15.859Z,3.90
2018-09-14T13:33:44.918Z,4.23
2018-09-14T13:36:13.891Z,3.60
2018-09-14T13:38:42.831Z,3.30
2018-09-14T13:41:11.816Z,3.70
2018-09-14T13:43:40.707Z,3.50
2018-09-14T13:46:09.706Z,3.97
2018-09-14T13:48:38.560Z,4.07
2018-09-14T13:51:07.043Z,3.93
2018-09-14T13:53:36.381Z,3.57
2018-09-14T13:56:05.309Z,3.80
2018-09-14T13:58:34.662Z,3.60
2018-09-14T14:01:03.795Z,3.90
2018-09-14T14:03:32.628Z,3.50
2018-09-14T14:06:01.579Z,3.10
2018-09-14T14:08:31.076Z,3.37
2018-09-14T14:11:00.065Z,3.87
2018-09-14T14:13:29.082Z,3.90
2018-09-14T14:15:58.076Z,3.20
2018-09-14T14:18:27.288Z,3.30
2018-09-14T14:20:56.244Z,3.17
2018-09-14T14:23:25.275Z,3.27
2018-09-14T14:25:54.584Z,4.03
2018-09-14T14:28:23.777Z,5.00
2018-09-14T14:30:53.056Z,4.83
2018-09-14T14:33:22.063Z,5.13
2018-09-14T14:35:51.036Z,4.97
2018-09-14T14:38:20.456Z,5.27
2018-09-14T14:40:49.495Z,5.03
2018-09-14T14:43:18.767Z,5.27
2018-09-14T14:45:48.023Z,5.20
2018-09-14T14:48:17.351Z,5.40
2018-09-14T14:50:46.512Z,5.03
2018-09-14T14:53:15.960Z,4.87
2018-09-14T14:55:44.883Z,5.20
2018-09-14T14:58:13.871Z,5.37
2018-09-14T15:00:42.888Z,5.20
2018-09-14T15:03:11.952Z,5.40
2018-09-14T15:05:40.859Z,5.00
2018-09-14T15:08:09.683Z,5.07
2018-09-14T15:10:38.743Z,5.00
2018-09-14T15:13:07.758Z,5.30
2018-09-14T15:15:37.109Z,5.53
2018-09-14T15:18:06.363Z,5.17
2018-09-14T15:20:35.321Z,6.07
2018-09-14T15:23:04.511Z,4.87
2018-09-14T15:25:33.397Z,5.77
2018-09-14T15:28:02.376Z,5.13
2018-09-14T15:30:31.440Z,5.60
2018-09-14T15:33:00.412Z,4.97
2018-09-14T15:35:29.415Z,4.83
2018-09-14T15:37:58.375Z,5.00
2018-09-14T15:40:27.509Z,5.27
2018-09-14T15:42:56.580Z,8.77
2018-09-14T15:45:25.623Z,5.60
2018-09-14T15:47:54.580Z,5.33
2018-09-14T15:50:23.605Z,5.50
2018-09-14T15:52:52.459Z,4.73
2018-09-14T15:55:21.503Z,4.53
2018-09-14T15:57:50.543Z,5.27
2018-09-14T16:00:22.077Z,4.67
2018-09-14T16:02:52.463Z,4.20
2018-09-14T16:05:21.539Z,4.20
2018-09-14T16:07:50.636Z,4.27
2018-09-14T16:10:19.680Z,3.80
2018-09-14T16:12:48.528Z,3.87
2018-09-14T16:15:17.447Z,5.07
2018-09-14T16:17:46.537Z,4.77
2018-09-14T16:20:15.528Z,4.47
2018-09-14T16:22:44.505Z,4.77
2018-09-14T16:25:13.419Z,3.93
2018-09-14T16:27:42.741Z,4.80
2018-09-14T16:30:12.017Z,4.50
2018-09-14T16:32:40.907Z,4.23
2018-09-14T16:35:10.182Z,4.03
2018-09-14T16:37:39.400Z,4.47
2018-09-14T16:40:08.660Z,3.93
2018-09-14T16:42:37.487Z,5.03
2018-09-14T16:45:06.608Z,4.80
2018-09-14T16:47:35.688Z,4.10
2018-09-14T16:50:04.596Z,4.43
2018-09-14T16:52:33.517Z,4.23
2018-09-14T16:55:02.534Z,3.80
2018-09-14T16:57:31.499Z,4.20
2018-09-14T17:00:00.336Z,3.97
2018-09-14T17:02:29.399Z,4.57
2018-09-14T17:04:58.408Z,4.60
2018-09-14T17:07:27.258Z,4.93
2018-09-14T17:09:56.337Z,4.67
2018-09-14T17:12:25.236Z,5.07
2018-09-14T17:14:54.250Z,5.20
2018-09-14T17:17:23.132Z,5.60
2018-09-14T17:19:52.306Z,5.00
2018-09-14T17:22:21.560Z,5.63
2018-09-14T17:24:50.525Z,5.40
2018-09-14T17:27:19.423Z,5.60
2018-09-14T17:29:48.569Z,5.50
2018-09-14T17:32:17.576Z,6.13
2018-09-14T17:34:46.641Z,6.10
2018-09-14T17:37:15.612Z,6.00
2018-09-14T17:39:44.641Z,6.50
2018-09-14T17:42:13.636Z,5.73
2018-09-14T17:44:42.554Z,4.47
2018-09-14T17:47:11.504Z,5.20
2018-09-14T17:49:40.594Z,5.53
2018-09-14T17:52:10.048Z,5.60
2018-09-14T17:54:39.052Z,6.33
2018-09-14T17:57:08.148Z,5.20
2018-09-14T17:59:37.096Z,5.13
2018-09-14T18:02:06.078Z,6.40
2018-09-14T18:04:35.132Z,6.80
2018-09-14T18:07:04.016Z,6.10
2018-09-14T18:09:33.052Z,6.53
2018-09-14T18:12:01.897Z,6.63
2018-09-14T18:14:30.787Z,6.90
2018-09-14T18:17:01.046Z,6.40
2018-09-14T18:19:29.969Z,6.43
2018-09-14T18:21:58.964Z,6.23
2018-09-14T18:24:27.980Z,6.30
2018-09-14T18:26:56.962Z,6.63
2018-09-14T18:29:25.948Z,6.93
2018-09-14T18:31:55.207Z,6.93
2018-09-14T18:34:24.116Z,10.13
2018-09-14T18:36:53.180Z,12.87
2018-09-14T18:39:22.060Z,6.97
2018-09-14T18:41:50.959Z,6.57
2018-09-14T18:44:19.839Z,6.57
2018-09-14T18:46:48.690Z,7.43
2018-09-14T18:49:17.727Z,7.87
2018-09-14T18:51:46.712Z,7.87
2018-09-14T18:54:15.811Z,6.83
2018-09-14T18:56:44.892Z,6.97
2018-09-14T18:59:13.747Z,6.23
2018-09-14T19:01:43.192Z,6.30
2018-09-14T19:04:12.124Z,5.87
2018-09-14T19:06:41.281Z,8.03
2018-09-14T19:09:11.934Z,6.70
2018-09-14T19:11:41.167Z,6.43
2018-09-14T19:14:10.483Z,7.40
2018-09-14T19:16:39.592Z,7.33
2018-09-14T19:19:08.597Z,6.57
2018-09-14T19:21:37.735Z,7.30
2018-09-14T19:24:06.959Z,9.00
2018-09-14T19:26:36.274Z,7.57
2018-09-14T19:29:05.109Z,7.63
2018-09-14T19:31:34.667Z,7.30
2018-09-14T19:34:04.012Z,7.47
2018-09-14T19:36:33.100Z,7.13
2018-09-14T19:39:02.500Z,9.13
2018-09-14T19:41:31.584Z,6.90
2018-09-14T19:44:01.144Z,7.00
2018-09-14T19:46:30.133Z,10.90
2018-09-14T19:48:59.744Z,10.80
2018-09-14T19:51:28.765Z,7.40
2018-09-14T19:53:57.798Z,6.80
2018-09-14T19:56:26.993Z,6.10
2018-09-14T19:58:55.839Z,7.23
2018-09-14T20:01:24.913Z,6.33
2018-09-14T20:03:54.180Z,6.63
2018-09-14T20:06:23.432Z,6.80
2018-09-14T20:08:52.892Z,7.13
2018-09-14T20:11:22.076Z,7.00
2018-09-14T20:13:51.402Z,7.40
2018-09-14T20:16:20.444Z,6.77
2018-09-14T20:18:49.740Z,6.63
2018-09-14T20:21:18.844Z,6.90
2018-09-14T20:23:47.782Z,7.17
2018-09-14T20:26:17.013Z,7.43
2018-09-14T20:28:46.175Z,7.90
2018-09-14T20:31:15.179Z,7.30
2018-09-14T20:33:44.519Z,7.20
2018-09-14T20:36:13.580Z,7.53
2018-09-14T20:38:42.554Z,7.57
2018-09-14T20:41:11.771Z,7.73
2018-09-14T20:43:40.656Z,8.00
2018-09-14T20:46:10.292Z,8.17
2018-09-14T20:48:39.641Z,7.63
2018-09-14T20:51:09.088Z,7.80
2018-09-14T20:53:38.568Z,7.53
2018-09-14T20:56:08.040Z,6.60
2018-09-14T20:58:37.240Z,7.37
2018-09-14T21:01:06.211Z,6.77
2018-09-14T21:03:35.328Z,6.57
2018-09-14T21:06:04.728Z,6.23
2018-09-14T21:08:34.105Z,6.80
2018-09-14T21:11:03.260Z,7.27
2018-09-14T21:13:32.456Z,7.00
2018-09-14T21:16:01.324Z,6.77
2018-09-14T21:18:30.240Z,7.83
2018-09-14T21:20:59.206Z,7.50
2018-09-14T21:23:28.554Z,7.30
2018-09-14T21:25:57.521Z,7.50
2018-09-14T21:28:26.504Z,7.40
2018-09-14T21:30:55.688Z,7.93
2018-09-14T21:33:24.884Z,7.20
2018-09-14T21:35:54.728Z,7.33
2018-09-14T21:38:23.683Z,6.90
2018-09-14T21:40:52.624Z,7.40
2018-09-14T21:43:21.841Z,7.37
2018-09-14T21:45:51.196Z,6.60
2018-09-14T21:48:20.157Z,7.50
2018-09-14T21:50:49.168Z,6.93
2018-09-14T21:53:18.375Z,7.30
2018-09-14T21:55:47.376Z,7.57
2018-09-14T21:58:16.321Z,7.30
2018-09-14T22:00:50.209Z,7.73
2018-09-14T22:03:19.088Z,7.43
2018-09-14T22:05:48.400Z,7.10
2018-09-14T22:08:17.372Z,7.40
2018-09-14T22:10:46.316Z,7.30
2018-09-14T22:13:15.223Z,7.50
2018-09-14T22:15:44.513Z,7.47
2018-09-14T22:18:13.692Z,7.50
2018-09-14T22:20:43.049Z,6.87
2018-09-14T22:23:12.061Z,6.63
2018-09-14T22:25:41.102Z,7.23
2018-09-14T22:28:10.959Z,7.10
2018-09-14T22:30:40.133Z,7.17
2018-09-14T22:33:09.227Z,6.67
2018-09-14T22:35:38.324Z,7.77
2018-09-14T22:38:07.752Z,6.70
2018-09-14T22:40:36.664Z,7.23
2018-09-14T22:43:05.763Z,7.30
2018-09-14T22:45:34.726Z,6.93
2018-09-14T22:48:03.684Z,7.43
2018-09-14T22:50:32.875Z,7.63
2018-09-14T22:53:02.215Z,7.80
2018-09-14T22:55:31.162Z,6.87
2018-09-14T22:58:00.260Z,6.60
2018-09-14T23:00:34.473Z,6.97
2018-09-14T23:03:03.732Z,6.93
2018-09-14T23:05:32.911Z,6.80
2018-09-14T23:08:02.096Z,7.70
2018-09-14T23:10:31.108Z,7.20
2018-09-14T23:13:00.063Z,6.87
2018-09-14T23:15:29.216Z,7.13
2018-09-14T23:17:59.193Z,7.40
2018-09-14T23:20:28.823Z,6.63
2018-09-14T23:22:57.952Z,7.23
2018-09-14T23:25:27.224Z,7.13
2018-09-14T23:27:56.456Z,6.70
2018-09-14T23:30:25.312Z,6.30
2018-09-14T23:32:54.346Z,6.53
2018-09-14T23:35:23.315Z,6.23
2018-09-14T23:37:52.255Z,6.30
2018-09-14T23:40:21.091Z,6.70
2018-09-14T23:42:49.923Z,6.23
2018-09-14T23:45:19.019Z,6.37
2018-09-14T23:47:48.104Z,5.83
2018-09-14T23:50:16.992Z,5.90
2018-09-14T23:52:46.265Z,6.13
2018-09-14T23:55:15.227Z,5.97
2018-09-14T23:57:44.547Z,6.50
